sensor_id;sensor_type;location;lat;lon;timestamp;temperature;humidity
21676;DHT22;10999;51.332;9.458;2023-06-26T00:01:05;18.60;89.80
21676;DHT22;10999;51.332;9.458;2023-06-26T00:03:32;18.50;89.80
21676;DHT22;10999;51.332;9.458;2023-06-26T00:05:59;18.50;90.10
21676;DHT22;10999;51.332;9.458;2023-06-26T00:08:28;18.50;90.80
21676;DHT22;10999;51.332;9.458;2023-06-26T00:10:55;18.50;90.80
21676;DHT22;10999;51.332;9.458;2023-06-26T00:13:23;18.50;90.80
21676;DHT22;10999;51.332;9.458;2023-06-26T00:15:50;18.40;90.60
21676;DHT22;10999;51.332;9.458;2023-06-26T00:18:17;18.40;90.90
21676;DHT22;10999;51.332;9.458;2023-06-26T00:20:44;18.30;91.20
21676;DHT22;10999;51.332;9.458;2023-06-26T00:23:12;18.30;91.30
21676;DHT22;10999;51.332;9.458;2023-06-26T00:25:40;18.30;91.70
21676;DHT22;10999;51.332;9.458;2023-06-26T00:28:06;18.20;91.80
21676;DHT22;10999;51.332;9.458;2023-06-26T00:30:33;18.20;91.90
21676;DHT22;10999;51.332;9.458;2023-06-26T00:33:01;18.20;92.10
21676;DHT22;10999;51.332;9.458;2023-06-26T00:35:27;18.10;92.40
21676;DHT22;10999;51.332;9.458;2023-06-26T00:37:54;18.10;92.50
21676;DHT22;10999;51.332;9.458;2023-06-26T00:40:21;18.10;92.50
21676;DHT22;10999;51.332;9.458;2023-06-26T00:42:48;18.00;92.50
21676;DHT22;10999;51.332;9.458;2023-06-26T00:45:15;18.00;92.40
21676;DHT22;10999;51.332;9.458;2023-06-26T00:47:45;17.90;92.70
21676;DHT22;10999;51.332;9.458;2023-06-26T00:50:12;17.90;92.70
21676;DHT22;10999;51.332;9.458;2023-06-26T00:52:42;17.80;93.10
21676;DHT22;10999;51.332;9.458;2023-06-26T00:55:09;17.80;93.30
21676;DHT22;10999;51.332;9.458;2023-06-26T00:57:36;17.80;93.60
21676;DHT22;10999;51.332;9.458;2023-06-26T01:00:03;17.80;93.80
21676;DHT22;10999;51.332;9.458;2023-06-26T01:02:30;17.70;93.90
21676;DHT22;10999;51.332;9.458;2023-06-26T01:05:01;17.70;94.00
21676;DHT22;10999;51.332;9.458;2023-06-26T01:07:33;17.70;94.30
21676;DHT22;10999;51.332;9.458;2023-06-26T01:10:06;17.70;94.30
21676;DHT22;10999;51.332;9.458;2023-06-26T01:12:33;17.60;94.30
21676;DHT22;10999;51.332;9.458;2023-06-26T01:15:01;17.60;94.40
21676;DHT22;10999;51.332;9.458;2023-06-26T01:17:28;17.60;94.60
21676;DHT22;10999;51.332;9.458;2023-06-26T01:19:59;17.50;94.60
21676;DHT22;10999;51.332;9.458;2023-06-26T01:22:42;17.50;95.60
21676;DHT22;10999;51.332;9.458;2023-06-26T01:27:49;17.50;94.50
21676;DHT22;10999;51.332;9.458;2023-06-26T01:30:17;17.50;94.70
21676;DHT22;10999;51.332;9.458;2023-06-26T01:32:45;17.50;94.90
21676;DHT22;10999;51.332;9.458;2023-06-26T01:35:13;17.50;94.90
21676;DHT22;10999;51.332;9.458;2023-06-26T01:37:41;17.50;94.80
21676;DHT22;10999;51.332;9.458;2023-06-26T01:40:08;17.40;94.70
21676;DHT22;10999;51.332;9.458;2023-06-26T01:42:36;17.40;94.70
21676;DHT22;10999;51.332;9.458;2023-06-26T01:47:41;17.40;95.00
21676;DHT22;10999;51.332;9.458;2023-06-26T01:50:26;17.30;95.20
21676;DHT22;10999;51.332;9.458;2023-06-26T01:53:17;17.30;95.30
21676;DHT22;10999;51.332;9.458;2023-06-26T01:55:52;17.20;95.40
21676;DHT22;10999;51.332;9.458;2023-06-26T01:58:22;17.20;95.40
21676;DHT22;10999;51.332;9.458;2023-06-26T02:00:50;17.20;95.40
21676;DHT22;10999;51.332;9.458;2023-06-26T02:03:17;17.20;95.50
21676;DHT22;10999;51.332;9.458;2023-06-26T02:05:44;17.10;95.70
21676;DHT22;10999;51.332;9.458;2023-06-26T02:08:14;17.10;95.90
21676;DHT22;10999;51.332;9.458;2023-06-26T02:10:41;17.10;95.90
21676;DHT22;10999;51.332;9.458;2023-06-26T02:13:08;17.10;96.00
21676;DHT22;10999;51.332;9.458;2023-06-26T02:15:35;17.00;95.90
21676;DHT22;10999;51.332;9.458;2023-06-26T02:18:02;17.00;96.00
21676;DHT22;10999;51.332;9.458;2023-06-26T02:20:28;17.00;96.10
21676;DHT22;10999;51.332;9.458;2023-06-26T02:22:55;16.90;96.20
21676;DHT22;10999;51.332;9.458;2023-06-26T02:25:22;17.00;96.30
21676;DHT22;10999;51.332;9.458;2023-06-26T02:27:48;16.90;96.30
21676;DHT22;10999;51.332;9.458;2023-06-26T02:30:15;16.90;96.40
21676;DHT22;10999;51.332;9.458;2023-06-26T02:32:42;16.90;96.50
21676;DHT22;10999;51.332;9.458;2023-06-26T02:35:09;16.90;96.50
21676;DHT22;10999;51.332;9.458;2023-06-26T02:37:36;16.80;96.40
21676;DHT22;10999;51.332;9.458;2023-06-26T02:40:03;16.80;96.30
21676;DHT22;10999;51.332;9.458;2023-06-26T02:42:32;16.80;96.50
21676;DHT22;10999;51.332;9.458;2023-06-26T02:44:59;16.70;96.70
21676;DHT22;10999;51.332;9.458;2023-06-26T02:47:25;16.70;96.70
21676;DHT22;10999;51.332;9.458;2023-06-26T02:49:52;16.60;96.90
21676;DHT22;10999;51.332;9.458;2023-06-26T02:52:19;16.60;97.00
21676;DHT22;10999;51.332;9.458;2023-06-26T02:54:46;16.60;97.10
21676;DHT22;10999;51.332;9.458;2023-06-26T02:57:13;16.60;97.20
21676;DHT22;10999;51.332;9.458;2023-06-26T02:59:41;16.60;97.20
21676;DHT22;10999;51.332;9.458;2023-06-26T03:02:08;16.60;97.30
21676;DHT22;10999;51.332;9.458;2023-06-26T03:04:34;16.60;97.40
21676;DHT22;10999;51.332;9.458;2023-06-26T03:07:03;16.60;97.40
21676;DHT22;10999;51.332;9.458;2023-06-26T03:09:30;16.50;97.50
21676;DHT22;10999;51.332;9.458;2023-06-26T03:11:57;16.50;97.80
21676;DHT22;10999;51.332;9.458;2023-06-26T03:14:24;16.50;98.60
21676;DHT22;10999;51.332;9.458;2023-06-26T03:16:51;16.50;98.00
21676;DHT22;10999;51.332;9.458;2023-06-26T03:19:19;16.40;98.00
21676;DHT22;10999;51.332;9.458;2023-06-26T03:21:46;16.50;98.20
21676;DHT22;10999;51.332;9.458;2023-06-26T03:24:13;16.50;98.30
21676;DHT22;10999;51.332;9.458;2023-06-26T03:26:39;16.40;98.20
21676;DHT22;10999;51.332;9.458;2023-06-26T03:29:06;16.40;98.30
21676;DHT22;10999;51.332;9.458;2023-06-26T03:31:33;16.40;98.50
21676;DHT22;10999;51.332;9.458;2023-06-26T03:34:00;16.40;98.50
21676;DHT22;10999;51.332;9.458;2023-06-26T03:36:27;16.40;98.60
21676;DHT22;10999;51.332;9.458;2023-06-26T03:38:53;16.40;98.70
21676;DHT22;10999;51.332;9.458;2023-06-26T03:41:23;16.50;99.00
21676;DHT22;10999;51.332;9.458;2023-06-26T03:43:50;16.50;99.10
21676;DHT22;10999;51.332;9.458;2023-06-26T03:46:17;16.60;99.10
21676;DHT22;10999;51.332;9.458;2023-06-26T03:48:44;16.60;99.10
21676;DHT22;10999;51.332;9.458;2023-06-26T03:51:11;16.70;99.10
21676;DHT22;10999;51.332;9.458;2023-06-26T03:53:38;16.70;99.00
21676;DHT22;10999;51.332;9.458;2023-06-26T03:56:05;16.80;99.00
21676;DHT22;10999;51.332;9.458;2023-06-26T03:58:32;16.80;99.20
21676;DHT22;10999;51.332;9.458;2023-06-26T04:00:58;16.80;99.20
21676;DHT22;10999;51.332;9.458;2023-06-26T04:03:25;16.90;99.20
21676;DHT22;10999;51.332;9.458;2023-06-26T04:05:52;16.90;99.20
21676;DHT22;10999;51.332;9.458;2023-06-26T04:08:19;16.90;99.20
21676;DHT22;10999;51.332;9.458;2023-06-26T04:10:47;17.00;99.00
21676;DHT22;10999;51.332;9.458;2023-06-26T04:13:14;17.10;98.90
21676;DHT22;10999;51.332;9.458;2023-06-26T04:15:41;17.10;98.30
21676;DHT22;10999;51.332;9.458;2023-06-26T04:18:08;17.20;98.10
21676;DHT22;10999;51.332;9.458;2023-06-26T04:20:39;17.30;97.70
21676;DHT22;10999;51.332;9.458;2023-06-26T04:23:07;17.30;97.40
21676;DHT22;10999;51.332;9.458;2023-06-26T04:25:34;17.30;97.10
21676;DHT22;10999;51.332;9.458;2023-06-26T04:28:01;17.40;96.80
21676;DHT22;10999;51.332;9.458;2023-06-26T04:30:28;17.40;96.50
21676;DHT22;10999;51.332;9.458;2023-06-26T04:32:54;17.50;96.40
21676;DHT22;10999;51.332;9.458;2023-06-26T04:35:25;17.60;95.60
21676;DHT22;10999;51.332;9.458;2023-06-26T04:37:52;17.60;95.20
21676;DHT22;10999;51.332;9.458;2023-06-26T04:40:19;17.70;95.20
21676;DHT22;10999;51.332;9.458;2023-06-26T04:42:46;17.70;94.90
21676;DHT22;10999;51.332;9.458;2023-06-26T04:45:12;17.70;94.80
21676;DHT22;10999;51.332;9.458;2023-06-26T04:47:39;17.80;94.70
21676;DHT22;10999;51.332;9.458;2023-06-26T04:50:06;17.90;94.60
21676;DHT22;10999;51.332;9.458;2023-06-26T04:52:34;17.90;93.80
21676;DHT22;10999;51.332;9.458;2023-06-26T04:55:00;18.00;93.70
21676;DHT22;10999;51.332;9.458;2023-06-26T04:57:27;18.00;93.50
21676;DHT22;10999;51.332;9.458;2023-06-26T04:59:54;18.20;93.30
21676;DHT22;10999;51.332;9.458;2023-06-26T05:02:21;18.20;92.90
21676;DHT22;10999;51.332;9.458;2023-06-26T05:04:48;18.40;91.10
21676;DHT22;10999;51.332;9.458;2023-06-26T05:07:15;18.50;89.70
21676;DHT22;10999;51.332;9.458;2023-06-26T05:09:41;18.70;88.10
21676;DHT22;10999;51.332;9.458;2023-06-26T05:12:08;18.90;85.80
21676;DHT22;10999;51.332;9.458;2023-06-26T05:14:35;19.10;84.10
21676;DHT22;10999;51.332;9.458;2023-06-26T05:17:02;19.30;81.40
21676;DHT22;10999;51.332;9.458;2023-06-26T05:19:29;19.40;79.30
21676;DHT22;10999;51.332;9.458;2023-06-26T05:21:56;19.50;78.90
21676;DHT22;10999;51.332;9.458;2023-06-26T05:24:23;19.60;78.70
21676;DHT22;10999;51.332;9.458;2023-06-26T05:26:51;19.70;78.00
21676;DHT22;10999;51.332;9.458;2023-06-26T05:29:18;19.70;77.60
21676;DHT22;10999;51.332;9.458;2023-06-26T05:31:45;19.90;77.00
21676;DHT22;10999;51.332;9.458;2023-06-26T05:34:14;20.00;77.70
21676;DHT22;10999;51.332;9.458;2023-06-26T05:36:42;20.20;75.50
21676;DHT22;10999;51.332;9.458;2023-06-26T05:39:10;20.30;75.60
21676;DHT22;10999;51.332;9.458;2023-06-26T05:41:37;20.30;74.80
21676;DHT22;10999;51.332;9.458;2023-06-26T05:44:04;20.40;74.50
21676;DHT22;10999;51.332;9.458;2023-06-26T05:46:31;20.50;75.50
21676;DHT22;10999;51.332;9.458;2023-06-26T05:48:58;20.70;75.00
21676;DHT22;10999;51.332;9.458;2023-06-26T05:51:25;20.70;73.40
21676;DHT22;10999;51.332;9.458;2023-06-26T05:53:51;20.80;74.40
21676;DHT22;10999;51.332;9.458;2023-06-26T05:56:19;20.80;71.90
21676;DHT22;10999;51.332;9.458;2023-06-26T05:58:46;20.80;71.00
21676;DHT22;10999;51.332;9.458;2023-06-26T06:01:13;20.90;70.80
21676;DHT22;10999;51.332;9.458;2023-06-26T06:03:40;21.00;68.30
21676;DHT22;10999;51.332;9.458;2023-06-26T06:06:07;21.10;68.20
21676;DHT22;10999;51.332;9.458;2023-06-26T06:08:34;21.20;68.20
21676;DHT22;10999;51.332;9.458;2023-06-26T06:11:01;21.20;67.40
21676;DHT22;10999;51.332;9.458;2023-06-26T06:13:28;21.20;65.00
21676;DHT22;10999;51.332;9.458;2023-06-26T06:15:55;21.30;64.80
21676;DHT22;10999;51.332;9.458;2023-06-26T06:18:22;21.40;63.70
21676;DHT22;10999;51.332;9.458;2023-06-26T06:20:49;21.50;63.60
21676;DHT22;10999;51.332;9.458;2023-06-26T06:23:16;21.70;61.80
21676;DHT22;10999;51.332;9.458;2023-06-26T06:25:43;21.70;62.30
21676;DHT22;10999;51.332;9.458;2023-06-26T06:28:10;21.80;63.60
21676;DHT22;10999;51.332;9.458;2023-06-26T06:30:37;21.90;62.70
21676;DHT22;10999;51.332;9.458;2023-06-26T06:33:06;22.00;59.50
21676;DHT22;10999;51.332;9.458;2023-06-26T06:35:33;22.10;59.30
21676;DHT22;10999;51.332;9.458;2023-06-26T06:38:00;22.10;58.00
21676;DHT22;10999;51.332;9.458;2023-06-26T06:40:27;22.10;58.60
21676;DHT22;10999;51.332;9.458;2023-06-26T06:42:54;22.00;58.70
21676;DHT22;10999;51.332;9.458;2023-06-26T06:45:21;22.10;57.50
21676;DHT22;10999;51.332;9.458;2023-06-26T06:47:48;22.40;59.30
21676;DHT22;10999;51.332;9.458;2023-06-26T06:50:15;22.60;56.10
21676;DHT22;10999;51.332;9.458;2023-06-26T06:52:42;22.80;53.90
21676;DHT22;10999;51.332;9.458;2023-06-26T06:55:09;23.00;53.80
21676;DHT22;10999;51.332;9.458;2023-06-26T06:57:38;23.10;51.80
21676;DHT22;10999;51.332;9.458;2023-06-26T07:00:10;23.10;52.00
21676;DHT22;10999;51.332;9.458;2023-06-26T07:02:38;23.20;51.30
21676;DHT22;10999;51.332;9.458;2023-06-26T07:05:06;23.20;52.10
21676;DHT22;10999;51.332;9.458;2023-06-26T07:07:34;23.40;51.60
21676;DHT22;10999;51.332;9.458;2023-06-26T07:10:05;23.60;50.30
21676;DHT22;10999;51.332;9.458;2023-06-26T07:12:32;23.70;49.40
21676;DHT22;10999;51.332;9.458;2023-06-26T07:15:00;23.90;45.80
21676;DHT22;10999;51.332;9.458;2023-06-26T07:17:27;24.00;45.20
21676;DHT22;10999;51.332;9.458;2023-06-26T07:19:54;24.00;46.60
21676;DHT22;10999;51.332;9.458;2023-06-26T07:22:22;24.10;48.00
21676;DHT22;10999;51.332;9.458;2023-06-26T07:24:49;24.10;48.60
21676;DHT22;10999;51.332;9.458;2023-06-26T07:27:16;24.20;44.70
21676;DHT22;10999;51.332;9.458;2023-06-26T07:29:44;24.30;44.00
21676;DHT22;10999;51.332;9.458;2023-06-26T07:32:11;24.40;44.00
21676;DHT22;10999;51.332;9.458;2023-06-26T07:34:41;24.50;43.90
21676;DHT22;10999;51.332;9.458;2023-06-26T07:37:08;24.60;42.90
21676;DHT22;10999;51.332;9.458;2023-06-26T07:39:34;24.60;43.00
21676;DHT22;10999;51.332;9.458;2023-06-26T07:42:01;24.70;41.40
21676;DHT22;10999;51.332;9.458;2023-06-26T07:44:28;24.90;39.70
21676;DHT22;10999;51.332;9.458;2023-06-26T07:46:55;25.10;41.80
21676;DHT22;10999;51.332;9.458;2023-06-26T07:49:22;25.20;41.50
21676;DHT22;10999;51.332;9.458;2023-06-26T07:51:49;25.40;39.70
21676;DHT22;10999;51.332;9.458;2023-06-26T07:54:16;25.60;38.90
21676;DHT22;10999;51.332;9.458;2023-06-26T07:57:03;25.90;38.20
21676;DHT22;10999;51.332;9.458;2023-06-26T07:59:31;26.10;37.30
21676;DHT22;10999;51.332;9.458;2023-06-26T08:01:58;26.10;36.70
21676;DHT22;10999;51.332;9.458;2023-06-26T08:04:27;26.30;36.10
21676;DHT22;10999;51.332;9.458;2023-06-26T08:06:56;26.30;38.10
21676;DHT22;10999;51.332;9.458;2023-06-26T08:09:25;26.50;36.40
21676;DHT22;10999;51.332;9.458;2023-06-26T08:11:52;26.50;34.80
21676;DHT22;10999;51.332;9.458;2023-06-26T08:14:20;26.60;37.10
21676;DHT22;10999;51.332;9.458;2023-06-26T08:16:47;26.60;35.40
21676;DHT22;10999;51.332;9.458;2023-06-26T08:19:14;26.80;35.30
21676;DHT22;10999;51.332;9.458;2023-06-26T08:21:43;26.80;35.90
21676;DHT22;10999;51.332;9.458;2023-06-26T08:24:10;26.70;34.70
21676;DHT22;10999;51.332;9.458;2023-06-26T08:26:39;26.80;36.60
21676;DHT22;10999;51.332;9.458;2023-06-26T08:29:06;26.60;35.00
21676;DHT22;10999;51.332;9.458;2023-06-26T08:31:39;26.80;37.10
21676;DHT22;10999;51.332;9.458;2023-06-26T08:34:07;27.00;36.60
21676;DHT22;10999;51.332;9.458;2023-06-26T08:36:34;27.20;35.50
21676;DHT22;10999;51.332;9.458;2023-06-26T08:39:00;27.30;33.70
21676;DHT22;10999;51.332;9.458;2023-06-26T08:41:27;27.40;34.50
21676;DHT22;10999;51.332;9.458;2023-06-26T08:43:54;27.60;35.70
21676;DHT22;10999;51.332;9.458;2023-06-26T08:46:21;27.80;32.50
21676;DHT22;10999;51.332;9.458;2023-06-26T08:48:52;27.80;33.80
21676;DHT22;10999;51.332;9.458;2023-06-26T08:51:24;28.00;33.20
21676;DHT22;10999;51.332;9.458;2023-06-26T08:54:00;28.10;33.10
21676;DHT22;10999;51.332;9.458;2023-06-26T08:56:37;28.20;34.50
21676;DHT22;10999;51.332;9.458;2023-06-26T08:59:07;28.40;33.60
21676;DHT22;10999;51.332;9.458;2023-06-26T09:01:34;28.50;31.20
21676;DHT22;10999;51.332;9.458;2023-06-26T09:04:01;28.50;31.70
21676;DHT22;10999;51.332;9.458;2023-06-26T09:06:29;28.60;31.10
21676;DHT22;10999;51.332;9.458;2023-06-26T09:08:56;28.90;36.00
21676;DHT22;10999;51.332;9.458;2023-06-26T09:11:22;29.00;28.90
21676;DHT22;10999;51.332;9.458;2023-06-26T09:13:49;29.00;27.70
21676;DHT22;10999;51.332;9.458;2023-06-26T09:16:16;28.90;29.40
21676;DHT22;10999;51.332;9.458;2023-06-26T09:18:45;28.80;28.00
21676;DHT22;10999;51.332;9.458;2023-06-26T09:21:13;28.60;27.20
21676;DHT22;10999;51.332;9.458;2023-06-26T09:23:41;28.50;29.20
21676;DHT22;10999;51.332;9.458;2023-06-26T09:26:08;28.30;30.20
21676;DHT22;10999;51.332;9.458;2023-06-26T09:28:35;28.10;28.70
21676;DHT22;10999;51.332;9.458;2023-06-26T09:31:07;27.90;26.60
21676;DHT22;10999;51.332;9.458;2023-06-26T09:33:36;27.70;30.10
21676;DHT22;10999;51.332;9.458;2023-06-26T09:36:07;27.70;27.60
21676;DHT22;10999;51.332;9.458;2023-06-26T09:38:36;27.60;29.40
21676;DHT22;10999;51.332;9.458;2023-06-26T09:41:03;27.70;31.20
21676;DHT22;10999;51.332;9.458;2023-06-26T09:43:30;28.10;30.00
21676;DHT22;10999;51.332;9.458;2023-06-26T09:46:00;28.50;26.80
21676;DHT22;10999;51.332;9.458;2023-06-26T09:48:28;28.80;25.00
21676;DHT22;10999;51.332;9.458;2023-06-26T09:50:55;28.80;26.10
21676;DHT22;10999;51.332;9.458;2023-06-26T09:53:42;28.90;28.90
21676;DHT22;10999;51.332;9.458;2023-06-26T09:56:16;28.80;26.60
21676;DHT22;10999;51.332;9.458;2023-06-26T09:58:44;28.40;28.70
21676;DHT22;10999;51.332;9.458;2023-06-26T10:01:11;28.10;30.60
21676;DHT22;10999;51.332;9.458;2023-06-26T10:03:38;27.70;32.50
21676;DHT22;10999;51.332;9.458;2023-06-26T10:06:05;27.30;34.70
21676;DHT22;10999;51.332;9.458;2023-06-26T10:08:34;27.10;36.00
21676;DHT22;10999;51.332;9.458;2023-06-26T10:11:04;26.90;35.30
21676;DHT22;10999;51.332;9.458;2023-06-26T10:13:36;26.90;35.70
21676;DHT22;10999;51.332;9.458;2023-06-26T10:16:06;26.80;37.40
21676;DHT22;10999;51.332;9.458;2023-06-26T10:18:36;26.70;39.90
21676;DHT22;10999;51.332;9.458;2023-06-26T10:21:05;26.70;39.00
21676;DHT22;10999;51.332;9.458;2023-06-26T10:23:35;26.50;37.90
21676;DHT22;10999;51.332;9.458;2023-06-26T10:26:03;26.30;38.00
21676;DHT22;10999;51.332;9.458;2023-06-26T10:28:31;26.10;38.70
21676;DHT22;10999;51.332;9.458;2023-06-26T10:31:01;25.80;39.70
21676;DHT22;10999;51.332;9.458;2023-06-26T10:33:29;25.50;41.30
21676;DHT22;10999;51.332;9.458;2023-06-26T10:39:01;24.90;41.50
21676;DHT22;10999;51.332;9.458;2023-06-26T10:41:41;24.60;42.20
21676;DHT22;10999;51.332;9.458;2023-06-26T10:44:44;24.20;53.00
21676;DHT22;10999;51.332;9.458;2023-06-26T10:47:12;23.60;64.00
21676;DHT22;10999;51.332;9.458;2023-06-26T10:49:55;23.10;72.90
21676;DHT22;10999;51.332;9.458;2023-06-26T10:52:38;22.50;78.30
21676;DHT22;10999;51.332;9.458;2023-06-26T10:55:08;21.90;84.90
21676;DHT22;10999;51.332;9.458;2023-06-26T10:57:38;21.50;88.80
21676;DHT22;10999;51.332;9.458;2023-06-26T11:00:11;21.20;90.60
21676;DHT22;10999;51.332;9.458;2023-06-26T11:02:50;21.00;92.70
21676;DHT22;10999;51.332;9.458;2023-06-26T11:05:28;21.00;93.00
21676;DHT22;10999;51.332;9.458;2023-06-26T11:08:21;21.00;94.80
21676;DHT22;10999;51.332;9.458;2023-06-26T11:11:08;21.10;96.00
21676;DHT22;10999;51.332;9.458;2023-06-26T11:13:35;21.30;96.30
21676;DHT22;10999;51.332;9.458;2023-06-26T11:16:02;21.40;96.60
21676;DHT22;10999;51.332;9.458;2023-06-26T11:18:30;21.60;96.10
21676;DHT22;10999;51.332;9.458;2023-06-26T11:21:08;21.90;95.10
21676;DHT22;10999;51.332;9.458;2023-06-26T11:23:36;22.20;95.10
21676;DHT22;10999;51.332;9.458;2023-06-26T11:26:19;22.40;94.40
21676;DHT22;10999;51.332;9.458;2023-06-26T11:28:56;22.60;92.00
21676;DHT22;10999;51.332;9.458;2023-06-26T11:31:33;22.80;91.70
21676;DHT22;10999;51.332;9.458;2023-06-26T11:34:02;22.80;89.40
21676;DHT22;10999;51.332;9.458;2023-06-26T11:36:30;22.90;88.90
21676;DHT22;10999;51.332;9.458;2023-06-26T11:39:02;22.90;89.80
21676;DHT22;10999;51.332;9.458;2023-06-26T11:41:36;22.80;82.50
21676;DHT22;10999;51.332;9.458;2023-06-26T11:44:04;22.80;80.30
21676;DHT22;10999;51.332;9.458;2023-06-26T11:46:33;22.70;80.90
21676;DHT22;10999;51.332;9.458;2023-06-26T11:49:08;22.80;83.40
21676;DHT22;10999;51.332;9.458;2023-06-26T11:51:35;22.80;81.90
21676;DHT22;10999;51.332;9.458;2023-06-26T11:54:03;23.10;86.50
21676;DHT22;10999;51.332;9.458;2023-06-26T11:56:31;23.40;83.30
21676;DHT22;10999;51.332;9.458;2023-06-26T11:59:06;23.50;79.40
21676;DHT22;10999;51.332;9.458;2023-06-26T12:01:39;23.40;75.90
21676;DHT22;10999;51.332;9.458;2023-06-26T12:04:11;23.30;75.90
21676;DHT22;10999;51.332;9.458;2023-06-26T12:06:40;23.20;75.40
21676;DHT22;10999;51.332;9.458;2023-06-26T12:09:09;23.10;67.50
21676;DHT22;10999;51.332;9.458;2023-06-26T12:11:39;23.10;73.00
21676;DHT22;10999;51.332;9.458;2023-06-26T12:14:07;23.10;70.30
21676;DHT22;10999;51.332;9.458;2023-06-26T12:16:35;23.20;72.70
21676;DHT22;10999;51.332;9.458;2023-06-26T12:19:03;23.50;71.10
21676;DHT22;10999;51.332;9.458;2023-06-26T12:24:04;23.80;65.20
21676;DHT22;10999;51.332;9.458;2023-06-26T12:26:32;23.90;63.30
21676;DHT22;10999;51.332;9.458;2023-06-26T12:29:08;24.10;61.60
21676;DHT22;10999;51.332;9.458;2023-06-26T12:31:35;24.30;60.80
21676;DHT22;10999;51.332;9.458;2023-06-26T12:34:12;24.60;61.10
21676;DHT22;10999;51.332;9.458;2023-06-26T12:36:49;24.70;53.30
21676;DHT22;10999;51.332;9.458;2023-06-26T12:39:20;24.90;54.20
21676;DHT22;10999;51.332;9.458;2023-06-26T12:42:00;24.90;49.80
21676;DHT22;10999;51.332;9.458;2023-06-26T12:44:31;24.90;48.60
21676;DHT22;10999;51.332;9.458;2023-06-26T12:47:01;25.00;52.00
21676;DHT22;10999;51.332;9.458;2023-06-26T12:49:34;25.10;51.30
21676;DHT22;10999;51.332;9.458;2023-06-26T12:52:04;24.90;48.40
21676;DHT22;10999;51.332;9.458;2023-06-26T12:54:31;24.70;42.90
21676;DHT22;10999;51.332;9.458;2023-06-26T12:56:58;24.60;44.40
21676;DHT22;10999;51.332;9.458;2023-06-26T12:59:25;24.40;45.70
21676;DHT22;10999;51.332;9.458;2023-06-26T13:01:52;24.60;49.50
21676;DHT22;10999;51.332;9.458;2023-06-26T13:04:19;24.80;47.70
21676;DHT22;10999;51.332;9.458;2023-06-26T13:06:46;25.00;47.20
21676;DHT22;10999;51.332;9.458;2023-06-26T13:09:13;25.10;46.70
21676;DHT22;10999;51.332;9.458;2023-06-26T13:11:39;25.30;44.10
21676;DHT22;10999;51.332;9.458;2023-06-26T13:14:06;25.40;40.90
21676;DHT22;10999;51.332;9.458;2023-06-26T13:16:37;25.30;46.10
21676;DHT22;10999;51.332;9.458;2023-06-26T13:19:04;25.40;43.40
21676;DHT22;10999;51.332;9.458;2023-06-26T13:21:31;25.50;41.60
21676;DHT22;10999;51.332;9.458;2023-06-26T13:23:58;25.50;40.10
21676;DHT22;10999;51.332;9.458;2023-06-26T13:26:26;25.50;38.80
21676;DHT22;10999;51.332;9.458;2023-06-26T13:29:04;25.50;40.60
21676;DHT22;10999;51.332;9.458;2023-06-26T13:31:31;25.40;38.50
21676;DHT22;10999;51.332;9.458;2023-06-26T13:33:59;25.50;41.90
21676;DHT22;10999;51.332;9.458;2023-06-26T13:36:26;25.60;40.70
21676;DHT22;10999;51.332;9.458;2023-06-26T13:38:53;25.60;36.90
21676;DHT22;10999;51.332;9.458;2023-06-26T13:41:23;25.70;38.00
21676;DHT22;10999;51.332;9.458;2023-06-26T13:43:51;25.70;32.10
21676;DHT22;10999;51.332;9.458;2023-06-26T13:46:19;25.60;36.20
21676;DHT22;10999;51.332;9.458;2023-06-26T13:48:46;25.70;35.50
21676;DHT22;10999;51.332;9.458;2023-06-26T13:51:13;25.70;36.40
21676;DHT22;10999;51.332;9.458;2023-06-26T13:53:40;25.60;36.20
21676;DHT22;10999;51.332;9.458;2023-06-26T13:56:07;25.10;36.10
21676;DHT22;10999;51.332;9.458;2023-06-26T13:58:35;24.90;38.00
21676;DHT22;10999;51.332;9.458;2023-06-26T14:01:03;25.00;38.70
21676;DHT22;10999;51.332;9.458;2023-06-26T14:03:31;25.30;37.80
21676;DHT22;10999;51.332;9.458;2023-06-26T14:05:58;25.40;35.90
21676;DHT22;10999;51.332;9.458;2023-06-26T14:08:28;25.50;33.40
21676;DHT22;10999;51.332;9.458;2023-06-26T14:10:55;25.40;32.80
21676;DHT22;10999;51.332;9.458;2023-06-26T14:13:21;25.30;32.90
21676;DHT22;10999;51.332;9.458;2023-06-26T14:15:50;25.40;33.20
21676;DHT22;10999;51.332;9.458;2023-06-26T14:18:20;25.30;32.30
21676;DHT22;10999;51.332;9.458;2023-06-26T14:20:51;25.40;30.30
21676;DHT22;10999;51.332;9.458;2023-06-26T14:23:18;25.30;34.00
21676;DHT22;10999;51.332;9.458;2023-06-26T14:25:44;25.40;31.30
21676;DHT22;10999;51.332;9.458;2023-06-26T14:28:15;25.40;31.00
21676;DHT22;10999;51.332;9.458;2023-06-26T14:30:42;25.30;26.50
21676;DHT22;10999;51.332;9.458;2023-06-26T14:33:09;25.20;26.50
21676;DHT22;10999;51.332;9.458;2023-06-26T14:35:36;25.20;23.80
21676;DHT22;10999;51.332;9.458;2023-06-26T14:38:02;25.30;24.70
21676;DHT22;10999;51.332;9.458;2023-06-26T14:40:29;25.50;24.50
21676;DHT22;10999;51.332;9.458;2023-06-26T14:42:56;25.50;23.10
21676;DHT22;10999;51.332;9.458;2023-06-26T14:45:24;25.60;25.20
21676;DHT22;10999;51.332;9.458;2023-06-26T14:47:51;25.70;25.50
21676;DHT22;10999;51.332;9.458;2023-06-26T14:50:18;25.80;26.30
21676;DHT22;10999;51.332;9.458;2023-06-26T14:52:45;26.00;22.90
21676;DHT22;10999;51.332;9.458;2023-06-26T14:55:12;25.80;23.40
21676;DHT22;10999;51.332;9.458;2023-06-26T14:57:39;25.40;22.90
21676;DHT22;10999;51.332;9.458;2023-06-26T15:00:06;25.20;25.70
21676;DHT22;10999;51.332;9.458;2023-06-26T15:02:34;25.10;24.70
21676;DHT22;10999;51.332;9.458;2023-06-26T15:05:01;25.10;26.00
21676;DHT22;10999;51.332;9.458;2023-06-26T15:07:28;25.10;26.20
21676;DHT22;10999;51.332;9.458;2023-06-26T15:09:55;25.10;28.30
21676;DHT22;10999;51.332;9.458;2023-06-26T15:12:21;25.10;29.00
21676;DHT22;10999;51.332;9.458;2023-06-26T15:14:50;25.00;29.10
21676;DHT22;10999;51.332;9.458;2023-06-26T15:17:18;25.00;27.80
21676;DHT22;10999;51.332;9.458;2023-06-26T15:19:45;25.00;30.80
21676;DHT22;10999;51.332;9.458;2023-06-26T15:22:11;25.00;31.80
21676;DHT22;10999;51.332;9.458;2023-06-26T15:24:38;25.00;31.50
21676;DHT22;10999;51.332;9.458;2023-06-26T15:27:05;25.00;29.60
21676;DHT22;10999;51.332;9.458;2023-06-26T15:29:33;25.10;31.00
21676;DHT22;10999;51.332;9.458;2023-06-26T15:32:01;25.00;30.80
21676;DHT22;10999;51.332;9.458;2023-06-26T15:34:28;25.00;29.90
21676;DHT22;10999;51.332;9.458;2023-06-26T15:36:54;24.90;31.10
21676;DHT22;10999;51.332;9.458;2023-06-26T15:39:21;24.90;30.80
21676;DHT22;10999;51.332;9.458;2023-06-26T15:41:48;24.70;32.40
21676;DHT22;10999;51.332;9.458;2023-06-26T15:44:15;24.60;29.90
21676;DHT22;10999;51.332;9.458;2023-06-26T15:46:42;24.40;30.80
21676;DHT22;10999;51.332;9.458;2023-06-26T15:49:08;24.40;30.10